createdAt,value
2023-03-18T00:03:03.128Z,3.90
2023-03-18T00:08:06.529Z,3.83
2023-03-18T00:13:08.086Z,4.55
2023-03-18T00:18:09.729Z,4.38
2023-03-18T00:23:11.478Z,3.92
2023-03-18T00:28:13.627Z,3.78
2023-03-18T00:33:16.337Z,4.25
2023-03-18T00:38:21.873Z,4.40
2023-03-18T00:43:29.382Z,4.43
2023-03-18T00:48:31.434Z,4.45
2023-03-18T00:53:32.949Z,4.55
2023-03-18T00:58:36.902Z,4.25
2023-03-18T01:03:44.319Z,4.57
2023-03-18T01:08:45.868Z,4.68
2023-03-18T01:13:47.911Z,4.65
2023-03-18T01:18:49.639Z,4.35
2023-03-18T01:23:51.328Z,4.72
2023-03-18T01:28:53.178Z,4.38
2023-03-18T01:33:56.068Z,4.25
2023-03-18T01:39:00.670Z,5.07
2023-03-18T01:44:04.254Z,4.75
2023-03-18T01:49:15.558Z,6.25
2023-03-18T01:54:18.798Z,6.05
2023-03-18T01:59:24.044Z,5.20
2023-03-18T02:04:32.608Z,5.25
2023-03-18T02:09:34.632Z,5.30
2023-03-18T02:14:39.438Z,4.82
2023-03-18T02:19:52.835Z,4.68
2023-03-18T02:25:13.487Z,5.30
2023-03-18T02:30:27.700Z,5.05
2023-03-18T02:35:32.217Z,5.22
2023-03-18T02:40:38.807Z,5.55
2023-03-18T02:46:11.316Z,5.22
2023-03-18T02:51:14.776Z,5.72
2023-03-18T02:56:16.868Z,5.60
2023-03-18T03:01:20.153Z,5.43
2023-03-18T03:06:22.086Z,6.15
2023-03-18T03:11:24.369Z,5.68
2023-03-18T03:16:29.612Z,5.40
2023-03-18T03:21:34.084Z,5.05
2023-03-18T03:26:36.055Z,5.95
2023-03-18T03:31:37.632Z,5.50
2023-03-18T03:36:40.856Z,5.55
2023-03-18T03:41:42.637Z,5.90
2023-03-18T03:46:44.536Z,5.68
2023-03-18T03:51:46.418Z,6.28
2023-03-18T03:56:48.705Z,5.80
2023-03-18T04:01:51.076Z,6.07
2023-03-18T04:06:52.752Z,5.40
2023-03-18T04:11:54.815Z,5.60
2023-03-18T04:16:58.152Z,6.50
2023-03-18T04:22:01.241Z,6.10
2023-03-18T04:27:04.658Z,5.85
2023-03-18T04:32:06.752Z,6.78
2023-03-18T04:37:10.427Z,7.55
2023-03-18T04:42:14.177Z,7.05
2023-03-18T04:47:16.411Z,6.50
2023-03-18T04:52:20.204Z,6.57
2023-03-18T04:57:22.169Z,6.45
2023-03-18T05:02:28.266Z,5.20
2023-03-18T05:07:30.156Z,6.15
2023-03-18T05:12:38.259Z,6.50
2023-03-18T05:17:41.863Z,6.03
2023-03-18T05:22:43.822Z,6.20
2023-03-18T05:27:51.746Z,5.93
2023-03-18T05:33:03.486Z,6.10
2023-03-18T05:38:16.406Z,6.18
2023-03-18T05:43:18.302Z,6.03
2023-03-18T05:48:27.074Z,7.15
2023-03-18T05:53:33.670Z,6.38
2023-03-18T05:58:45.871Z,6.28
2023-03-18T06:03:57.195Z,6.00
2023-03-18T06:09:00.787Z,6.45
2023-03-18T06:14:07.248Z,5.95
2023-03-18T06:19:10.821Z,5.93
2023-03-18T06:24:14.563Z,5.80
2023-03-18T06:29:18.222Z,5.82
2023-03-18T06:34:20.461Z,6.03
2023-03-18T06:39:22.239Z,7.60
2023-03-18T06:44:25.301Z,7.22
2023-03-18T06:49:30.850Z,6.20
2023-03-18T06:54:41.763Z,5.93
2023-03-18T06:59:43.636Z,5.90
2023-03-18T07:04:45.412Z,5.70
2023-03-18T07:09:47.696Z,5.80
2023-03-18T07:14:49.351Z,6.40
2023-03-18T07:19:53.374Z,6.95
2023-03-18T07:24:55.513Z,6.95
2023-03-18T07:29:57.129Z,6.45
2023-03-18T07:34:59.213Z,6.30
2023-03-18T07:40:01.371Z,6.93
2023-03-18T07:45:03.105Z,6.78
2023-03-18T07:50:05.723Z,6.47
2023-03-18T07:55:09.136Z,5.97
2023-03-18T08:00:12.500Z,6.03
2023-03-18T08:05:19.125Z,6.18
2023-03-18T08:10:20.883Z,6.03
2023-03-18T08:15:23.259Z,6.18
2023-03-18T08:20:24.882Z,6.53
2023-03-18T08:25:26.670Z,5.25
2023-03-18T08:30:28.891Z,6.63
2023-03-18T08:35:30.918Z,6.20
2023-03-18T08:40:34.760Z,6.00
2023-03-18T08:45:36.799Z,6.30
2023-03-18T08:50:38.723Z,6.35
2023-03-18T08:55:40.739Z,6.15
2023-03-18T09:00:43.028Z,6.32
2023-03-18T09:05:49.310Z,6.82
2023-03-18T09:10:53.642Z,5.93
2023-03-18T09:15:55.319Z,7.18
2023-03-18T09:20:57.609Z,6.38
2023-03-18T09:25:59.776Z,6.80
2023-03-18T09:31:01.711Z,5.90
2023-03-18T09:36:04.514Z,7.05
2023-03-18T09:41:41.287Z,7.10
2023-03-18T09:47:14.688Z,6.65
2023-03-18T09:52:22.610Z,7.03
2023-03-18T09:57:30.450Z,7.03
2023-03-18T10:02:40.451Z,6.90
2023-03-18T10:07:44.627Z,6.80
2023-03-18T10:12:50.705Z,6.90
2023-03-18T10:18:22.386Z,7.25
2023-03-18T10:23:37.597Z,6.90
2023-03-18T10:28:42.566Z,7.32
2023-03-18T10:33:56.209Z,6.55
2023-03-18T10:38:59.776Z,7.15
2023-03-18T10:44:32.575Z,7.70
2023-03-18T10:49:41.072Z,6.47
2023-03-18T10:59:55.286Z,6.55
2023-03-18T11:05:04.354Z,6.63
2023-03-18T11:10:23.876Z,5.85
2023-03-18T11:15:26.448Z,6.53
2023-03-18T11:20:44.086Z,5.45
2023-03-18T11:25:48.574Z,5.90
2023-03-18T11:30:54.883Z,5.70
2023-03-18T11:36:09.724Z,5.88
2023-03-18T11:41:17.418Z,5.35
2023-03-18T11:46:21.447Z,5.37
2023-03-18T11:51:51.262Z,5.50
2023-03-18T11:57:16.426Z,5.57
2023-03-18T12:02:41.165Z,5.00
2023-03-18T12:07:56.840Z,4.40
2023-03-18T12:13:29.802Z,5.13
2023-03-18T12:18:44.491Z,4.45
2023-03-18T12:24:09.006Z,4.68
2023-03-18T12:29:39.419Z,5.20
2023-03-18T12:35:16.062Z,4.30
2023-03-18T12:40:54.219Z,4.80
2023-03-18T12:46:03.605Z,5.43
2023-03-18T12:51:10.621Z,5.65
2023-03-18T12:56:43.318Z,5.40
2023-03-18T13:01:49.398Z,5.80
2023-03-18T13:07:15.990Z,6.50
2023-03-18T13:12:23.688Z,5.63
2023-03-18T13:17:36.196Z,6.13
2023-03-18T13:22:44.025Z,6.95
2023-03-18T13:27:53.965Z,6.22
2023-03-18T13:33:13.377Z,6.32
2023-03-18T13:38:20.635Z,6.43
2023-03-18T13:43:24.632Z,7.05
2023-03-18T13:48:33.731Z,6.90
2023-03-18T13:53:43.922Z,6.88
2023-03-18T13:58:52.525Z,6.63
2023-03-18T14:03:57.118Z,6.28
2023-03-18T14:08:58.736Z,6.60
2023-03-18T14:14:05.970Z,7.03
2023-03-18T14:19:32.617Z,5.88
2023-03-18T14:24:35.009Z,6.60
2023-03-18T14:29:36.599Z,6.10
2023-03-18T14:34:47.937Z,6.60
2023-03-18T14:39:53.002Z,6.93
2023-03-18T14:44:59.285Z,6.65
2023-03-18T14:50:04.428Z,6.10
2023-03-18T14:55:14.344Z,6.00
2023-03-18T15:00:18.028Z,6.47
2023-03-18T15:05:22.750Z,6.63
2023-03-18T15:10:27.903Z,6.50
2023-03-18T15:15:29.520Z,6.57
2023-03-18T15:20:36.183Z,5.95
2023-03-18T15:25:41.249Z,6.18
2023-03-18T15:31:00.337Z,5.80
2023-03-18T15:36:16.464Z,6.82
2023-03-18T15:41:21.589Z,6.78
2023-03-18T15:46:27.818Z,6.53
2023-03-18T15:51:40.416Z,6.93
2023-03-18T15:56:48.695Z,7.10
2023-03-18T16:06:53.669Z,7.15
2023-03-18T16:12:00.414Z,7.28
2023-03-18T16:17:02.570Z,7.53
2023-03-18T16:22:04.250Z,7.10
2023-03-18T16:27:06.073Z,6.85
2023-03-18T16:32:11.855Z,7.45
2023-03-18T16:37:23.936Z,6.82
2023-03-18T16:42:25.456Z,6.85
2023-03-18T16:47:27.662Z,7.07
2023-03-18T16:52:29.325Z,7.10
2023-03-18T16:57:31.583Z,6.78
2023-03-18T17:02:34.780Z,7.22
2023-03-18T17:07:36.981Z,7.63
2023-03-18T17:12:39.867Z,7.40
2023-03-18T17:17:41.933Z,7.32
2023-03-18T17:22:43.864Z,7.07
2023-03-18T17:27:55.287Z,7.50
2023-03-18T17:32:56.835Z,7.20
2023-03-18T17:37:59.139Z,7.50
2023-03-18T17:43:01.241Z,7.38
2023-03-18T17:48:23.818Z,7.30
2023-03-18T17:53:27.309Z,6.97
2023-03-18T17:58:31.194Z,7.35
2023-03-18T18:03:34.932Z,7.53
2023-03-18T18:08:37.230Z,7.60
2023-03-18T18:13:38.803Z,7.50
2023-03-18T18:18:41.570Z,6.88
2023-03-18T18:23:45.418Z,7.75
2023-03-18T18:28:49.525Z,6.72
2023-03-18T18:33:51.598Z,7.50
2023-03-18T18:38:53.158Z,7.68
2023-03-18T18:43:55.557Z,7.50
2023-03-18T18:48:57.154Z,7.45
2023-03-18T18:53:59.898Z,7.43
2023-03-18T18:59:05.245Z,8.50
2023-03-18T19:04:14.536Z,7.57
2023-03-18T19:09:21.952Z,7.47
2023-03-18T19:14:26.578Z,7.70
2023-03-18T19:19:30.911Z,8.30
2023-03-18T19:24:36.701Z,7.63
2023-03-18T19:29:38.459Z,7.93
2023-03-18T19:34:39.962Z,7.72
2023-03-18T19:39:42.712Z,6.63
2023-03-18T19:44:45.273Z,6.93
2023-03-18T19:49:46.964Z,7.20
2023-03-18T19:54:49.934Z,7.72
2023-03-18T19:59:54.254Z,6.70
2023-03-18T20:05:01.047Z,6.25
2023-03-18T20:10:02.616Z,7.03
2023-03-18T20:15:05.799Z,6.80
2023-03-18T20:20:13.136Z,6.72
2023-03-18T20:25:24.278Z,6.88
2023-03-18T20:30:28.202Z,7.15
2023-03-18T20:35:33.027Z,6.78
2023-03-18T20:40:34.898Z,6.55
2023-03-18T20:45:36.448Z,6.20
2023-03-18T20:50:38.602Z,6.53
2023-03-18T20:55:41.335Z,6.50
2023-03-18T21:00:43.903Z,6.18
2023-03-18T21:05:46.352Z,5.95
2023-03-18T21:10:48.100Z,5.57
2023-03-18T21:15:49.609Z,5.47
2023-03-18T21:20:51.283Z,6.00
2023-03-18T21:25:53.410Z,6.07
2023-03-18T21:30:58.314Z,6.18
2023-03-18T21:36:01.120Z,6.40
2023-03-18T21:41:03.071Z,6.63
2023-03-18T21:46:07.466Z,6.95
2023-03-18T21:51:37.226Z,6.35
2023-03-18T21:56:39.953Z,6.93
2023-03-18T22:01:41.645Z,7.15
2023-03-18T22:06:43.220Z,7.32
2023-03-18T22:11:44.793Z,7.00
2023-03-18T22:16:46.493Z,7.05
2023-03-18T22:21:48.205Z,7.22
2023-03-18T22:26:49.724Z,7.20
2023-03-18T22:31:51.430Z,6.70
2023-03-18T22:36:53.010Z,7.15
2023-03-18T22:41:54.560Z,6.82
2023-03-18T22:46:56.180Z,7.32
2023-03-18T22:51:57.781Z,6.85
2023-03-18T22:56:59.411Z,6.80
2023-03-18T23:02:00.956Z,7.82
2023-03-18T23:07:02.610Z,7.53
2023-03-18T23:12:04.248Z,7.40
2023-03-18T23:17:06.308Z,6.90
2023-03-18T23:22:11.714Z,7.53
2023-03-18T23:27:13.249Z,7.15
2023-03-18T23:32:16.409Z,7.75
2023-03-18T23:37:18.408Z,7.30
2023-03-18T23:42:20.866Z,7.53
2023-03-18T23:47:22.393Z,7.07
2023-03-18T23:52:24.025Z,7.93
2023-03-18T23:57:25.610Z,7.15
